| time (UTC) | temp C | wind direction | speed KPH | gust KPH | rain 1hr cm | rain 24hr cm | rain mn cm | humidity % | barometer mb |
| 20260510044504 | 22 | 138 | 8.0 | 14.5 | 0.00 | 0.05 | 0.05 | 70 | 1009.8 |
| 20260510043007 | 22 | 196 | 8.0 | 19.3 | 0.00 | 0.05 | 0.05 | 1009.8 | |
| 20260510041517 | 22 | 147 | 6.4 | 14.5 | 0.00 | 0.05 | 0.05 | 71 | 1010.1 |
| 20260510040018 | 22 | 179 | 6.4 | 8.0 | 0.00 | 0.05 | 0.05 | 71 | 1010.2 |
| 20260510034524 | 22 | 179 | 3.2 | 8.0 | 0.00 | 0.05 | 0.05 | 69 | 1010.3 |
| 20260510033008 | 23 | 173 | 4.8 | 8.0 | 0.00 | 0.05 | 0.05 | 68 | 1010.2 |
| 20260510031521 | 23 | 178 | 4.8 | 11.3 | 0.00 | 0.05 | 0.05 | 66 | 1010.1 |
| 20260510030015 | 23 | 164 | 3.2 | 9.7 | 0.00 | 0.05 | 0.05 | 66 | 1010.1 |
| 20260510024521 | 23 | 175 | 3.2 | 8.0 | 0.00 | 0.05 | 0.05 | 67 | 1009.9 |
| 20260510023026 | 23 | 166 | 3.2 | 6.4 | 0.00 | 0.05 | 0.05 | 66 | 1009.6 |
| 20260510021514 | 24 | 163 | 1.6 | 4.8 | 0.00 | 0.05 | 0.05 | 64 | 1009.6 |
| 20260510020019 | 25 | 155 | 1.6 | 4.8 | 0.00 | 0.05 | 0.05 | 61 | 1009.6 |
| 20260510014519 | 26 | 165 | 3.2 | 6.4 | 0.00 | 0.05 | 0.05 | 59 | 1009.4 |
| 20260510013023 | 26 | 167 | 1.6 | 6.4 | 0.00 | 0.05 | 0.05 | 56 | 1009.2 |
| 20260510011508 | 27 | 130 | 3.2 | 6.4 | 0.00 | 0.05 | 0.05 | 55 | 1008.9 |
| 20260510010014 | 28 | 174 | 3.2 | 8.0 | 0.00 | 0.05 | 0.05 | 54 | 1009.0 |
| 20260510004520 | 28 | 173 | 3.2 | 8.0 | 0.00 | 0.05 | 0.05 | 52 | 1009.0 |
| 20260510003029 | 29 | 178 | 4.8 | 12.9 | 0.00 | 0.05 | 0.05 | 48 | 1009.0 |
| 20260510001527 | 30 | 169 | 4.8 | 14.5 | 0.00 | 0.05 | 0.05 | 49 | 1009.0 |
| 20260510000018 | 30 | 173 | 6.4 | 14.5 | 0.00 | 0.05 | 0.05 | 48 | 1009.0 |
| 20260509234520 | 30 | 194 | 8.0 | 12.9 | 0.00 | 0.05 | 0.05 | 47 | 1009.0 |
| 20260509233022 | 30 | 140 | 8.0 | 16.1 | 0.00 | 0.05 | 0.05 | 46 | 1009.0 |
| 20260509231527 | 30 | 140 | 8.0 | 16.1 | 0.00 | 0.05 | 0.05 | 47 | 1008.9 |
| 20260509230012 | 30 | 128 | 9.7 | 16.1 | 0.00 | 0.05 | 0.05 | 46 | 1009.0 |
| 20260509224517 | 31 | 156 | 8.0 | 16.1 | 0.00 | 0.05 | 0.05 | 46 | 1009.0 |
| 20260509223021 | 31 | 167 | 6.4 | 19.3 | 0.00 | 0.05 | 0.05 | 46 | 1009.0 |
| 20260509221526 | 31 | 178 | 6.4 | 20.9 | 0.00 | 0.05 | 0.05 | 47 | 1009.1 |
| 20260509220038 | 30 | 170 | 9.7 | 16.1 | 0.00 | 0.05 | 0.05 | 47 | 1009.1 |
| 20260509214513 | 30 | 203 | 12.9 | 17.7 | 0.00 | 0.05 | 0.05 | 50 | 1009.2 |
| 20260509213022 | 31 | 181 | 11.3 | 19.3 | 0.00 | 0.05 | 0.05 | 47 | 1009.3 |
| 20260509211524 | 31 | 204 | 6.4 | 19.3 | 0.00 | 0.05 | 0.05 | 46 | 1009.5 |
| 20260509210026 | 31 | 187 | 4.8 | 14.5 | 0.00 | 0.05 | 0.05 | 51 | 1009.6 |
| 20260509204515 | 30 | 173 | 11.3 | 19.3 | 0.00 | 0.05 | 0.05 | 46 | 1010.1 |
| 20260509203029 | 30 | 124 | 3.2 | 9.7 | 0.00 | 0.05 | 0.05 | 44 | 1010.2 |
| 20260509201522 | 30 | 221 | 9.7 | 14.5 | 0.00 | 0.05 | 0.05 | 44 | 1010.3 |
| 20260509200036 | 30 | 188 | 4.8 | 16.1 | 0.00 | 0.05 | 0.05 | 46 | 1010.4 |
| 20260509194543 | 30 | 71 | 1.6 | 12.9 | 0.00 | 0.05 | 0.05 | 50 | 1010.8 |
| 20260509193022 | 30 | 134 | 8.0 | 17.7 | 0.00 | 0.05 | 0.05 | 51 | 1010.8 |
| 20260509191522 | 30 | 173 | 3.2 | 11.3 | 0.00 | 0.05 | 0.05 | 52 | 1010.9 |
| 20260509190026 | 29 | 168 | 3.2 | 11.3 | 0.00 | 0.05 | 0.05 | 51 | 1011.1 |
| 20260509184525 | 28 | 215 | 3.2 | 8.0 | 0.00 | 0.05 | 0.05 | 55 | 1011.2 |
| 20260509183029 | 28 | 84 | 1.6 | 11.3 | 0.00 | 0.05 | 0.05 | 53 | 1011.4 |
| 20260509181519 | 28 | 236 | 4.8 | 9.7 | 0.00 | 0.48 | 0.05 | 59 | 1011.6 |
| 20260509180023 | 28 | 227 | 3.2 | 11.3 | 0.00 | 0.48 | 0.05 | 60 | 1012.0 |
| 20260509174540 | 27 | 307 | 6.4 | 12.9 | 0.00 | 0.48 | 0.05 | 62 | 1012.1 |
| 20260509173026 | 27 | 302 | 3.2 | 12.9 | 0.00 | 0.48 | 0.05 | 65 | 1012.3 |
| 20260509171526 | 26 | 280 | 3.2 | 9.7 | 0.00 | 0.48 | 0.05 | 68 | 1012.4 |
| 20260509170005 | 26 | 319 | 3.2 | 6.4 | 0.00 | 0.48 | 0.05 | 68 | 1012.5 |
| 20260509164508 | 25 | 9 | 3.2 | 14.5 | 0.00 | 0.48 | 0.05 | 72 | 1012.7 |
| 20260509163016 | 25 | 30 | 3.2 | 6.4 | 0.00 | 0.48 | 0.05 | 71 | 1012.9 |
| 20260509161527 | 25 | 322 | 6.4 | 14.5 | 0.00 | 0.48 | 0.05 | 71 | 1012.7 |
| 20260509160022 | 24 | 209 | 4.8 | 12.9 | 0.00 | 0.48 | 0.05 | 73 | 1012.7 |
| 20260509154507 | 23 | 277 | 4.8 | 12.9 | 0.00 | 0.48 | 0.05 | 73 | 1012.8 |
| 20260509153021 | 23 | 246 | 4.8 | 12.9 | 0.00 | 0.48 | 0.05 | 76 | 1012.7 |
| 20260509151518 | 23 | 304 | 4.8 | 16.1 | 0.00 | 0.48 | 0.05 | 75 | 1012.7 |
| 20260509150033 | 22 | 287 | 3.2 | 8.0 | 0.00 | 0.48 | 0.05 | 76 | 1012.8 |
| 20260509144506 | 22 | 341 | 6.4 | 12.9 | 0.00 | 0.48 | 0.05 | 76 | 1012.9 |
| 20260509143008 | 22 | 11 | 6.4 | 14.5 | 0.00 | 0.48 | 0.05 | 77 | 1012.9 |
| 20260509141514 | 21 | 348 | 4.8 | 14.5 | 0.00 | 0.48 | 0.05 | 78 | 1012.9 |
| 20260509140022 | 21 | 19 | 9.7 | 16.1 | 0.00 | 0.48 | 0.05 | 81 | 1012.9 |
| 20260509134527 | 20 | 15 | 6.4 | 11.3 | 0.00 | 0.48 | 0.05 | 82 | 1012.9 |
| 20260509133008 | 18 | 351 | 6.4 | 11.3 | 0.00 | 0.48 | 0.05 | 83 | 1012.7 |
| 20260509131518 | 18 | 23 | 6.4 | 11.3 | 0.00 | 0.48 | 0.05 | 83 | 1012.5 |
| 20260509130022 | 17 | 352 | 4.8 | 9.7 | 0.00 | 0.48 | 0.05 | 85 | 1012.4 |
| 20260509124524 | 17 | 15 | 3.2 | 8.0 | 0.00 | 0.48 | 0.05 | 87 | 1012.0 |
| 20260509123028 | 16 | 29 | 1.6 | 3.2 | 0.00 | 0.48 | 0.05 | 89 | 1011.5 |
| 20260509121514 | 16 | 23 | 1.6 | 6.4 | 0.00 | 0.48 | 0.05 | 89 | 1011.5 |
| 20260509120024 | 16 | 29 | 1.6 | 4.8 | 0.00 | 0.48 | 0.05 | 89 | 1011.4 |
| 20260509114525 | 16 | 47 | 1.6 | 4.8 | 0.00 | 0.48 | 0.05 | 90 | 1011.1 |
| 20260509113026 | 16 | 286 | 0.0 | 4.8 | 0.00 | 0.48 | 0.05 | 88 | 1010.9 |
| 20260509111510 | 16 | 286 | 1.6 | 12.9 | 0.00 | 0.48 | 0.05 | 88 | 1010.7 |
| 20260509110005 | 17 | 275 | 6.4 | 9.7 | 0.00 | 0.48 | 0.05 | 86 | 1010.5 |
| 20260509104508 | 17 | 15 | 4.8 | 6.4 | 0.00 | 0.48 | 0.05 | 86 | 1010.0 |
| 20260509103004 | 18 | 96 | 0.0 | 6.4 | 0.00 | 0.48 | 0.05 | 85 | 1009.9 |
| 20260509101504 | 18 | 88 | 3.2 | 6.4 | 0.00 | 0.48 | 0.05 | 84 | 1009.7 |
| 20260509100008 | 18 | 195 | 4.8 | 11.3 | 0.00 | 0.48 | 0.05 | 83 | 1009.7 |
| 20260509094509 | 17 | 190 | 16.1 | 30.6 | 0.00 | 0.48 | 0.05 | 85 | 1009.9 |
| 20260509093010 | 17 | 238 | 16.1 | 25.7 | 0.00 | 0.48 | 0.05 | 85 | 1010.4 |
| 20260509091510 | 17 | 204 | 6.4 | 17.7 | 0.00 | 0.48 | 0.05 | 86 | 1010.8 |
| 20260509090010 | 17 | 209 | 3.2 | 12.9 | 0.00 | 0.48 | 0.05 | 87 | 1010.9 |
| 20260509084510 | 17 | 144 | 6.4 | 20.9 | 0.00 | 0.48 | 0.05 | 88 | 1010.2 |
| 20260509083015 | 17 | 207 | 9.7 | 19.3 | 0.00 | 0.48 | 0.05 | 87 | 1011.2 |
| 20260509081509 | 17 | 184 | 16.1 | 24.1 | 0.03 | 0.48 | 0.05 | 86 | 1011.0 |
| 20260509080014 | 17 | 182 | 6.4 | 11.3 | 0.05 | 0.48 | 0.05 | 85 | 1011.4 |
| 20260509074508 | 18 | 166 | 4.8 | 6.4 | 0.05 | 0.48 | 0.05 | 82 | 1012.2 |
| 20260509073012 | 18 | 9 | 6.4 | 20.9 | 0.05 | 0.48 | 0.05 | 81 | 1013.1 |
| 20260509071513 | 19 | 52 | 11.3 | 29.0 | 0.03 | 0.46 | 0.03 | 82 | 1013.4 |
| 20260509070014 | 19 | 16 | 9.7 | 27.4 | 0.00 | 0.43 | 0.00 | 88 | 1013.7 |
| 20260509064511 | 20 | 80 | 22.5 | 38.6 | 0.00 | 0.43 | 0.00 | 90 | 1013.7 |
| 20260509063017 | 19 | 37 | 9.7 | 17.7 | 0.00 | 0.43 | 0.00 | 93 | 1012.8 |
| 20260509061513 | 18 | 32 | 9.7 | 16.1 | 0.00 | 0.43 | 0.00 | 92 | 1012.1 |
| 20260509060014 | 18 | 105 | 1.6 | 4.8 | 0.00 | 0.43 | 0.00 | 92 | 1011.0 |
| 20260509054514 | 18 | 132 | 3.2 | 6.4 | 0.00 | 0.43 | 0.00 | 92 | 1011.2 |
| 20260509053014 | 18 | 184 | 3.2 | 9.7 | 0.00 | 0.43 | 0.00 | 91 | 1011.2 |
| 20260509051514 | 18 | 202 | 6.4 | 14.5 | 0.00 | 0.43 | 0.00 | 91 | 1011.0 |
| 20260509050037 | 18 | 165 | 6.4 | 14.5 | 0.00 | 0.43 | 0.00 | 91 | 1010.7 |